Haworth, NJ

1:31 AM EST on February 08, 2016 (GMT -0500)
Latch String, Oradell | | Change Station
CLOSE
Current Station
Personal Weather Station
Location: Oradell, NJ
Elevation: 100 ft
Nearby Weather Stations

Elev 100 ft 40.96 °N, 74.03 °W | Updated 19 seconds ago

Partly Cloudy
Partly Cloudy
36.0 °F
Feels Like 36 °F
N
2.9
Wind Variable Wind from NNW
Gusts 2.9 mph

Today
High -- | Low -- °F
--% Chance of Precip.
Yesterday
High -- | Low -- °F
Precip. -- in
Pressure 29.86 in
Visibility 10.0 miles
Clouds Clear
Windchill 36 °F
Dew Point 12 °F
Humidity 36%
Rainfall 0.00 in
Snow Depth Not available.
6:59 AM 5:21 PM
Waning Crescent, 0% visible
METAR KTEB 080551Z 04007G16KT 10SM CLR 04/M07 A2986 RMK AO2 SLP111 T00391067 10050 20039 58032
Pressure 29.86 in
Visibility 10.0 miles
Clouds Clear
Windchill 36 °F
Dew Point 12 °F
Humidity 36%
Rainfall 0.00 in
Snow Depth Not available.
6:59 AM 5:21 PM
Waning Crescent, 0% visible
METAR KTEB 080551Z 04007G16KT 10SM CLR 04/M07 A2986 RMK AO2 SLP111 T00391067 10050 20039 58032

10-Day Weather Forecast

Almanac

Astronomy

Feb. 08, 2016 Rise Set
Actual Time
Civil Twilight
Nautical Twilight
Astronomical Twilight
Moon
Length of Visible Light
Length of Day
Tomorrow will be .
, % of the Moon is Illuminated

Today's Extremes

State Highs State Lows

Community

WunderPhotos

Upload Photos

1,891,393 photos uploaded!

WunderBlog® & News

Nearby

Air Quality

  Air Quality AQ Index Pollutant
Not available.

Snow Depth

Station Depth Elevation

Earthquake Activity

City Distance Mag. Time & Date
Minimum magnitude displayed is 2.5.

Coastal Water Temperatures

Place Temperature

Stations

Nearby Weather Stations

Station Location Temp. Windchill Dew Point Humidity Wind Precip. Elev Updated Type
                   

Watches & Warnings

There are currently no watches in effect.